Time;durP1;ratioP1;P1;durP2;ratioP2;P2;SDS_P1;SDS_P2;PMS_P1;PMS_P2;Temp;Humidity;BMP_temperature;BMP_pressure;BME280_temperature;BME280_humidity;BME280_pressure;Samples;Min_cycle;Max_cycle;Signal;HPM_P1;HPM_P2
2021/01/23 00:01:26;;;;;;;41.93;21.13;;;7.60;78.40;;;;;;4921607;28;93105;-70
2021/01/23 00:03:52;;;;;;;46.47;23.13;;;7.50;78.00;;;;;;4921058;28;92925;-70
2021/01/23 00:06:19;;;;;;;42.65;22.02;;;7.50;77.70;;;;;;4904101;28;93103;-70
2021/01/23 00:08:45;;;;;;;43.53;22.30;;;7.50;79.00;;;;;;4887731;28;92168;-71
2021/01/23 00:11:11;;;;;;;40.27;22.67;;;7.50;79.10;;;;;;4921571;28;93684;-70
2021/01/23 00:13:37;;;;;;;56.50;28.47;;;7.40;79.20;;;;;;4903521;28;92833;-70
2021/01/23 00:16:03;;;;;;;50.50;26.17;;;7.40;77.80;;;;;;4904117;28;91924;-70
2021/01/23 00:18:30;;;;;;;45.40;24.13;;;7.40;78.90;;;;;;4920865;28;92305;-70
2021/01/23 00:20:56;;;;;;;40.40;22.47;;;7.40;78.80;;;;;;4902663;28;93961;-70
2021/01/23 00:23:22;;;;;;;38.67;21.70;;;7.30;78.40;;;;;;4921739;28;92902;-70
2021/01/23 00:25:47;;;;;;;37.60;20.93;;;7.30;79.20;;;;;;4920896;28;92121;-71
2021/01/23 00:28:13;;;;;;;39.40;21.50;;;7.30;79.10;;;;;;4904398;28;92132;-71
2021/01/23 00:30:39;;;;;;;39.60;21.63;;;7.20;79.50;;;;;;4902375;28;97072;-70
2021/01/23 00:33:05;;;;;;;35.10;21.13;;;7.20;78.40;;;;;;4921128;28;93281;-71
2021/01/23 00:35:31;;;;;;;35.87;19.60;;;7.10;79.80;;;;;;4903519;28;92088;-71
2021/01/23 00:37:57;;;;;;;43.73;22.63;;;7.10;79.10;;;;;;4903998;28;92079;-71
2021/01/23 00:40:24;;;;;;;38.23;20.63;;;7.20;80.00;;;;;;4903948;28;93391;-70
2021/01/23 00:42:50;;;;;;;32.27;18.97;;;7.10;80.60;;;;;;4902744;28;96312;-70
2021/01/23 00:45:16;;;;;;;33.90;18.00;;;7.10;79.40;;;;;;4903910;28;91926;-70
2021/01/23 00:47:42;;;;;;;38.23;20.10;;;7.00;80.00;;;;;;4887290;28;91665;-71
2021/01/23 00:50:09;;;;;;;32.27;18.40;;;7.00;81.50;;;;;;4887665;28;96636;-70
2021/01/23 00:52:36;;;;;;;41.77;20.93;;;7.10;81.00;;;;;;4886907;28;96250;-70
2021/01/23 00:55:03;;;;;;;36.50;18.70;;;7.10;79.90;;;;;;4887347;28;93049;-71
2021/01/23 00:57:31;;;;;;;36.73;19.63;;;7.10;80.00;;;;;;4887940;28;92309;-70
2021/01/23 00:59:57;;;;;;;34.43;18.83;;;7.10;80.50;;;;;;4887031;28;96686;-70
2021/01/23 01:02:23;;;;;;;38.63;21.13;;;7.20;79.70;;;;;;4920149;28;92816;-70
2021/01/23 01:04:49;;;;;;;119.60;64.90;;;7.20;79.00;;;;;;4902664;28;92495;-71
2021/01/23 01:07:15;;;;;;;102.23;57.70;;;7.20;79.50;;;;;;4903385;28;92744;-71
2021/01/23 01:09:41;;;;;;;94.87;50.97;;;7.20;79.70;;;;;;4901744;28;96607;-70
2021/01/23 01:12:07;;;;;;;65.47;38.27;;;7.20;79.70;;;;;;4903402;28;96149;-70
2021/01/23 01:14:33;;;;;;;63.13;33.77;;;7.20;79.30;;;;;;4887390;28;92053;-70
2021/01/23 01:16:59;;;;;;;49.50;29.30;;;7.20;78.50;;;;;;4920514;28;92088;-70
2021/01/23 01:19:24;;;;;;;49.17;28.47;;;7.20;78.50;;;;;;4919497;28;94183;-70
2021/01/23 01:21:50;;;;;;;52.33;30.03;;;7.20;78.20;;;;;;4902481;28;93335;-70
2021/01/23 01:24:16;;;;;;;75.03;41.27;;;7.20;78.30;;;;;;4887289;28;92008;-70
2021/01/23 01:26:42;;;;;;;59.17;34.90;;;7.20;78.40;;;;;;4902678;28;92139;-70
2021/01/23 01:29:08;;;;;;;64.17;36.20;;;7.20;78.40;;;;;;4920406;28;92734;-70
2021/01/23 01:31:34;;;;;;;62.67;36.53;;;7.20;77.90;;;;;;4920163;28;92878;-70
2021/01/23 01:33:59;;;;;;;63.10;35.23;;;7.20;78.00;;;;;;4920203;28;91895;-70
2021/01/23 01:36:25;;;;;;;54.83;31.80;;;7.30;77.70;;;;;;4887663;28;91364;-70
2021/01/23 01:38:51;;;;;;;51.33;29.60;;;7.30;78.40;;;;;;4901891;28;96444;-70
2021/01/23 01:41:17;;;;;;;49.13;27.10;;;7.40;78.00;;;;;;4920281;28;92898;-70
2021/01/23 01:43:45;;;;;;;42.50;22.97;;;7.50;77.60;;;;;;4902066;28;92790;-70
2021/01/23 01:46:12;;;;;;;42.70;24.03;;;7.50;77.80;;;;;;4920396;28;91987;-70
2021/01/23 01:48:38;;;;;;;38.17;22.07;;;7.50;77.80;;;;;;4886006;28;96505;-70
2021/01/23 01:51:04;;;;;;;38.30;22.13;;;7.60;77.40;;;;;;4886671;28;95922;-70
2021/01/23 01:53:30;;;;;;;40.93;22.23;;;7.60;77.50;;;;;;4903207;28;92471;-70
2021/01/23 01:55:56;;;;;;;34.67;20.20;;;7.60;78.10;;;;;;4919569;28;92538;-70
2021/01/23 01:58:22;;;;;;;39.03;20.43;;;7.60;78.10;;;;;;4902676;28;93307;-70
2021/01/23 02:00:48;;;;;;;42.97;25.10;;;7.60;79.40;;;;;;4885357;28;96004;-70
2021/01/23 02:03:46;;;;;;;44.60;22.97;;;7.70;78.60;;;;;;4886866;28;92424;-70
2021/01/23 02:06:37;;;;;;;38.73;23.97;;;7.70;79.30;;;;;;4807298;29;92299;-70
2021/01/23 02:09:17;;;;;;;35.73;20.43;;;7.80;78.80;;;;;;4806949;29;94296;-71
2021/01/23 02:11:56;;;;;;;38.93;20.63;;;7.80;79.30;;;;;;4822112;29;92486;-71
2021/01/23 02:14:31;;;;;;;34.97;20.90;;;7.80;78.80;;;;;;4806738;29;92037;-71
2021/01/23 02:17:08;;;;;;;34.70;19.83;;;7.80;78.40;;;;;;4806770;29;92684;-71
2021/01/23 02:20:17;;;;;;;36.97;18.83;;;7.80;77.90;;;;;;4822595;29;92498;-71
2021/01/23 02:23:11;;;;;;;40.07;20.20;;;7.90;78.40;;;;;;4767278;29;92300;-71
2021/01/23 02:26:04;;;;;;;37.67;20.33;;;7.90;78.70;;;;;;4767869;29;92088;-71
2021/01/23 02:28:45;;;;;;;35.20;19.30;;;7.90;79.00;;;;;;4815901;29;96196;-71
2021/01/23 02:31:19;;;;;;;32.90;20.13;;;7.90;78.90;;;;;;4822764;29;93238;-71
2021/01/23 02:33:48;;;;;;;33.70;20.13;;;7.90;78.60;;;;;;4790868;29;96517;-71
2021/01/23 02:36:15;;;;;;;35.47;19.50;;;8.00;78.50;;;;;;4806961;29;93289;-71
2021/01/23 02:38:42;;;;;;;33.50;19.50;;;7.90;78.40;;;;;;4807081;29;92687;-71
2021/01/23 02:41:10;;;;;;;30.27;18.73;;;7.90;78.40;;;;;;4807223;29;93199;-71
2021/01/23 02:43:41;;;;;;;31.83;19.10;;;8.00;78.30;;;;;;4864991;28;96457;-71
2021/01/23 02:46:09;;;;;;;38.55;20.90;;;7.90;78.50;;;;;;4902326;28;91920;-71
2021/01/23 02:48:35;;;;;;;31.23;19.23;;;8.00;78.60;;;;;;4919500;28;91955;-71
2021/01/23 02:51:01;;;;;;;30.10;17.73;;;7.90;78.90;;;;;;4900274;28;96457;-71
2021/01/23 02:53:31;;;;;;;27.97;16.70;;;7.90;79.30;;;;;;4901981;28;96387;-71
2021/01/23 02:56:06;;;;;;;31.17;16.07;;;7.80;80.10;;;;;;4885436;28;92533;-71
2021/01/23 02:58:33;;;;;;;25.17;15.50;;;7.70;80.50;;;;;;4902196;28;91879;-71
2021/01/23 03:01:01;;;;;;;27.30;15.70;;;7.70;80.80;;;;;;4900311;28;96990;-71
2021/01/23 03:03:28;;;;;;;22.47;14.50;;;7.60;80.70;;;;;;4901561;28;96660;-71
2021/01/23 03:05:54;;;;;;;27.23;15.57;;;7.60;81.10;;;;;;4900996;28;92484;-71
2021/01/23 03:08:20;;;;;;;26.63;14.97;;;7.60;80.80;;;;;;4901699;28;92166;-71
2021/01/23 03:10:46;;;;;;;26.27;15.33;;;7.60;81.10;;;;;;4900960;28;92678;-71
2021/01/23 03:13:14;;;;;;;26.17;15.83;;;7.50;81.50;;;;;;4919285;28;92454;-71
2021/01/23 03:15:40;;;;;;;25.90;15.70;;;7.40;81.80;;;;;;4919200;28;92205;-71
2021/01/23 03:18:08;;;;;;;26.00;14.60;;;7.40;82.20;;;;;;4901320;28;91416;-71
2021/01/23 03:20:34;;;;;;;28.93;16.03;;;7.30;82.60;;;;;;4919071;28;92830;-71
2021/01/23 03:23:01;;;;;;;28.07;15.23;;;7.40;82.50;;;;;;4900732;28;92879;-71
2021/01/23 03:25:28;;;;;;;33.90;17.97;;;7.40;82.30;;;;;;4902902;28;92907;-71
2021/01/23 03:27:54;;;;;;;32.63;17.20;;;7.40;82.40;;;;;;4904049;28;92116;-71
2021/01/23 03:30:21;;;;;;;25.40;16.53;;;7.30;82.70;;;;;;4904601;28;94651;-71
2021/01/23 03:32:49;;;;;;;31.17;17.73;;;7.30;82.70;;;;;;4903940;28;96207;-72
2021/01/23 03:35:15;;;;;;;30.13;17.77;;;7.30;82.90;;;;;;4904836;28;92036;-71
2021/01/23 03:37:41;;;;;;;31.37;17.37;;;7.20;83.20;;;;;;4905164;28;92133;-71
2021/01/23 03:40:08;;;;;;;30.60;18.47;;;7.10;84.00;;;;;;4903119;28;96296;-71
2021/01/23 03:42:38;;;;;;;31.77;17.07;;;6.90;84.90;;;;;;4922348;28;93050;-71
2021/01/23 03:45:06;;;;;;;28.10;17.03;;;6.90;85.20;;;;;;4903977;28;91942;-71
2021/01/23 03:47:31;;;;;;;27.40;16.20;;;6.90;85.10;;;;;;4922217;28;91885;-71
2021/01/23 03:49:57;;;;;;;26.03;16.40;;;6.80;85.80;;;;;;4920646;28;94049;-71
2021/01/23 03:52:23;;;;;;;30.40;16.33;;;6.80;86.10;;;;;;4904578;28;93294;-71
2021/01/23 03:54:49;;;;;;;29.77;17.30;;;6.80;86.30;;;;;;4904112;28;91956;-71
2021/01/23 03:57:15;;;;;;;30.23;16.07;;;6.80;86.20;;;;;;4888629;28;92144;-71
2021/01/23 03:59:41;;;;;;;29.33;16.30;;;6.90;85.80;;;;;;4921829;28;92748;-71
2021/01/23 04:02:07;;;;;;;31.37;17.07;;;6.90;85.80;;;;;;4920961;28;93397;-71
2021/01/23 04:04:32;;;;;;;36.13;17.77;;;6.80;86.30;;;;;;4904901;28;92011;-71
2021/01/23 04:06:59;;;;;;;30.53;15.97;;;6.90;86.40;;;;;;4903863;28;91443;-71
2021/01/23 04:09:25;;;;;;;27.53;16.00;;;6.90;86.50;;;;;;4904363;28;93227;-71
2021/01/23 04:11:51;;;;;;;27.67;15.80;;;6.90;86.40;;;;;;4920858;28;92276;-71
2021/01/23 04:14:18;;;;;;;24.60;15.73;;;6.90;86.40;;;;;;4921762;28;92857;-71
2021/01/23 04:16:48;;;;;;;29.10;17.13;;;7.00;86.10;;;;;;4888241;28;92118;-71
2021/01/23 04:19:14;;;;;;;32.13;16.50;;;7.10;85.70;;;;;;4903438;28;93533;-71
2021/01/23 04:21:40;;;;;;;27.63;16.23;;;7.20;85.60;;;;;;4904164;28;92483;-71
2021/01/23 04:24:07;;;;;;;29.60;16.17;;;7.30;85.90;;;;;;4887535;28;92022;-71
2021/01/23 04:26:33;;;;;;;25.23;14.67;;;7.20;85.60;;;;;;4888074;28;92177;-71
2021/01/23 04:28:59;;;;;;;28.37;17.03;;;7.10;86.30;;;;;;4902928;28;96110;-71
2021/01/23 04:31:25;;;;;;;25.90;15.07;;;7.00;86.60;;;;;;4903486;28;96030;-71
2021/01/23 04:33:50;;;;;;;26.33;14.50;;;7.10;86.60;;;;;;4903780;28;92080;-71
2021/01/23 04:36:16;;;;;;;26.67;15.47;;;7.20;86.40;;;;;;4920761;28;92157;-71
2021/01/23 04:38:42;;;;;;;25.80;15.10;;;7.20;86.30;;;;;;4903224;28;93751;-71
2021/01/23 04:41:08;;;;;;;22.13;14.33;;;7.10;86.80;;;;;;4903083;28;93252;-71
2021/01/23 04:43:34;;;;;;;23.93;14.73;;;7.10;86.90;;;;;;4903813;28;91881;-71
2021/01/23 04:46:00;;;;;;;29.50;15.23;;;7.20;87.00;;;;;;4903311;28;92143;-71
2021/01/23 04:48:27;;;;;;;31.97;16.07;;;7.20;87.10;;;;;;4920940;28;92706;-71
2021/01/23 04:50:53;;;;;;;25.33;16.07;;;7.20;86.90;;;;;;4903011;28;92833;-71
2021/01/23 04:53:18;;;;;;;22.03;14.07;;;7.30;86.90;;;;;;4921268;28;92231;-71
2021/01/23 04:55:45;;;;;;;24.03;14.30;;;7.30;86.70;;;;;;4904406;28;91623;-71
2021/01/23 04:58:10;;;;;;;24.03;15.80;;;7.40;86.70;;;;;;4902605;28;94962;-71
2021/01/23 05:00:36;;;;;;;28.87;15.60;;;7.30;86.90;;;;;;4903581;28;92384;-71
2021/01/23 05:03:05;;;;;;;24.63;15.07;;;7.10;88.20;;;;;;4902389;28;93010;-71
2021/01/23 05:05:32;;;;;;;31.00;17.07;;;7.00;88.90;;;;;;4903339;28;92463;-71
2021/01/23 05:08:13;;;;;;;29.77;14.70;;;7.10;89.20;;;;;;4902599;28;92696;-71
2021/01/23 05:10:42;;;;;;;23.93;15.40;;;7.10;88.90;;;;;;4920803;28;92489;-71
2021/01/23 05:13:13;;;;;;;30.37;16.93;;;7.20;88.40;;;;;;4902763;28;92258;-71
2021/01/23 05:15:43;;;;;;;30.67;17.35;;;7.30;88.10;;;;;;4887620;28;92219;-71
2021/01/23 05:18:10;;;;;;;32.23;16.77;;;7.40;87.80;;;;;;4885833;28;95519;-70
2021/01/23 05:20:50;;;;;;;32.43;17.47;;;7.40;87.70;;;;;;4886912;28;96317;-71
2021/01/23 05:23:19;;;;;;;27.53;16.30;;;7.30;88.10;;;;;;4886706;28;91920;-71
2021/01/23 05:25:48;;;;;;;34.57;16.20;;;7.30;88.20;;;;;;4920713;28;92086;-71
2021/01/23 05:28:30;;;;;;;29.23;15.53;;;7.30;88.20;;;;;;4901601;28;94135;-71
2021/01/23 05:30:56;;;;;;;30.83;16.87;;;7.30;88.00;;;;;;4919813;28;93937;-71
2021/01/23 05:33:28;;;;;;;29.37;16.77;;;7.40;88.00;;;;;;4903147;28;92024;-71
2021/01/23 05:36:14;;;;;;;27.33;15.43;;;7.40;87.90;;;;;;4920321;28;92428;-71
2021/01/23 05:38:41;;;;;;;29.17;16.93;;;7.40;88.00;;;;;;4920211;28;92802;-71
2021/01/23 05:41:08;;;;;;;27.37;16.27;;;7.50;87.70;;;;;;4902252;28;93025;-71
2021/01/23 05:43:45;;;;;;;28.47;16.70;;;7.50;87.30;;;;;;4903255;28;91808;-71
2021/01/23 05:46:11;;;;;;;31.83;16.70;;;7.50;87.30;;;;;;4902607;28;91626;-71
2021/01/23 05:48:48;;;;;;;32.83;18.03;;;7.50;87.30;;;;;;4902702;28;92865;-71
2021/01/23 05:51:15;;;;;;;34.23;17.50;;;7.40;88.00;;;;;;4919443;28;93021;-71
2021/01/23 05:53:41;;;;;;;32.93;17.87;;;7.40;88.20;;;;;;4902650;28;92859;-71
2021/01/23 05:56:07;;;;;;;34.23;18.37;;;7.40;88.00;;;;;;4901975;28;92170;-71
2021/01/23 05:58:35;;;;;;;37.13;18.20;;;7.50;87.70;;;;;;4902672;28;93246;-71
2021/01/23 06:01:04;;;;;;;31.50;17.13;;;7.50;87.60;;;;;;4901820;28;92424;-71
2021/01/23 06:03:36;;;;;;;31.63;16.60;;;7.50;87.50;;;;;;4902635;28;92134;-71
2021/01/23 06:06:03;;;;;;;30.00;17.60;;;7.60;87.20;;;;;;4919320;28;92082;-71
2021/01/23 06:08:38;;;;;;;33.63;18.47;;;7.60;87.30;;;;;;4902195;28;94567;-71
2021/01/23 06:11:04;;;;;;;38.07;19.37;;;7.60;87.50;;;;;;4901549;28;93164;-71
2021/01/23 06:13:36;;;;;;;30.73;16.73;;;7.60;87.60;;;;;;4902931;28;92575;-71
2021/01/23 06:16:02;;;;;;;33.63;18.35;;;7.50;87.80;;;;;;4901896;28;92127;-71
2021/01/23 06:18:30;;;;;;;31.60;18.00;;;7.50;88.00;;;;;;4898459;28;94381;-71
2021/01/23 06:21:01;;;;;;;34.07;19.77;;;7.50;88.30;;;;;;4898763;28;97217;-71
2021/01/23 06:23:48;;;;;;;32.17;17.17;;;7.50;88.20;;;;;;4899684;28;92258;-71
2021/01/23 06:26:15;;;;;;;31.13;18.37;;;7.50;88.50;;;;;;4899914;28;92220;-71
2021/01/23 06:28:40;;;;;;;34.13;19.07;;;7.40;89.10;;;;;;4898922;28;96383;-71
2021/01/23 06:31:26;;;;;;;32.87;17.73;;;7.40;88.80;;;;;;4898292;28;92833;-71
2021/01/23 06:33:52;;;;;;;31.87;18.13;;;7.40;88.90;;;;;;4883332;28;92566;-71
2021/01/23 06:36:19;;;;;;;34.93;19.87;;;7.50;88.90;;;;;;4898694;28;91497;-71
2021/01/23 06:39:07;;;;;;;37.97;19.33;;;7.50;88.70;;;;;;4898984;28;92859;-71
2021/01/23 06:41:36;;;;;;;41.73;21.50;;;7.60;88.50;;;;;;4898667;28;95941;-71
2021/01/23 06:44:10;;;;;;;37.70;18.83;;;7.60;88.30;;;;;;4897460;28;92944;-71
2021/01/23 06:46:40;;;;;;;36.87;19.80;;;7.60;88.10;;;;;;4898835;28;92066;-71
2021/01/23 06:49:11;;;;;;;32.23;18.73;;;7.70;87.70;;;;;;4899138;28;92577;-71
2021/01/23 06:51:46;;;;;;;35.93;20.07;;;7.80;87.30;;;;;;4898725;28;96420;-71
2021/01/23 06:54:22;;;;;;;30.43;18.40;;;7.70;87.50;;;;;;4899793;28;92446;-71
2021/01/23 06:56:49;;;;;;;37.00;19.43;;;7.80;87.20;;;;;;4882806;28;92056;-71
2021/01/23 06:59:30;;;;;;;37.27;20.27;;;7.90;86.90;;;;;;4898440;28;93346;-71
2021/01/23 07:02:10;;;;;;;35.73;20.33;;;7.90;87.00;;;;;;4889239;28;92613;-71
2021/01/23 07:04:43;;;;;;;38.50;21.13;;;7.90;86.70;;;;;;4906673;28;92276;-71
2021/01/23 07:07:10;;;;;;;36.17;19.80;;;7.90;86.70;;;;;;4887761;28;91881;-71
2021/01/23 07:09:48;;;;;;;33.17;20.40;;;7.90;86.70;;;;;;4888631;28;94146;-71
2021/01/23 07:12:34;;;;;;;49.83;23.93;;;7.90;86.80;;;;;;4887944;28;97729;-71
2021/01/23 07:15:13;;;;;;;41.90;21.67;;;7.80;86.90;;;;;;4888915;28;92045;-71
2021/01/23 07:17:43;;;;;;;44.83;25.40;;;7.90;86.90;;;;;;4873221;28;92117;-71
2021/01/23 07:20:13;;;;;;;41.57;24.50;;;7.90;86.60;;;;;;4905277;28;92576;-71
2021/01/23 07:22:41;;;;;;;47.43;25.87;;;7.90;86.30;;;;;;4872929;28;96534;-71
2021/01/23 07:25:15;;;;;;;40.23;22.67;;;8.00;86.30;;;;;;4888343;28;91806;-71
2021/01/23 07:27:42;;;;;;;39.40;22.13;;;8.00;85.70;;;;;;4889259;28;93229;-71
2021/01/23 07:30:12;;;;;;;43.10;22.83;;;8.00;85.40;;;;;;4905056;28;93155;-71
2021/01/23 07:32:43;;;;;;;37.90;22.03;;;8.00;85.60;;;;;;4872702;28;95866;-71
2021/01/23 07:35:09;;;;;;;40.60;22.47;;;7.90;85.50;;;;;;4887509;28;92996;-71
2021/01/23 07:37:44;;;;;;;37.30;22.03;;;7.90;85.70;;;;;;4889059;28;92132;-71
2021/01/23 07:40:13;;;;;;;36.23;21.93;;;8.00;85.60;;;;;;4887732;28;96259;-71
2021/01/23 07:42:40;;;;;;;38.37;24.63;;;8.00;85.50;;;;;;4888828;28;92357;-71
2021/01/23 07:45:08;;;;;;;38.80;24.27;;;8.00;85.40;;;;;;4872371;28;91925;-71
2021/01/23 07:47:35;;;;;;;46.53;27.93;;;8.00;85.30;;;;;;4872706;28;92255;-71
2021/01/23 07:50:09;;;;;;;43.73;27.70;;;8.00;84.80;;;;;;4887895;28;92748;-71
2021/01/23 07:52:37;;;;;;;44.17;26.47;;;8.00;84.80;;;;;;4905971;28;92865;-71
2021/01/23 07:55:04;;;;;;;46.40;27.77;;;8.10;84.50;;;;;;4888495;28;92077;-71
2021/01/23 07:57:30;;;;;;;47.13;26.63;;;8.20;84.30;;;;;;4905739;28;92104;-71
2021/01/23 07:59:57;;;;;;;43.97;25.90;;;8.20;84.30;;;;;;4887707;28;97515;-71
2021/01/23 08:02:23;;;;;;;41.10;24.80;;;8.20;83.90;;;;;;4905073;28;93389;-71
2021/01/23 08:04:54;;;;;;;41.80;25.10;;;8.30;83.90;;;;;;4888575;28;91940;-71
2021/01/23 08:07:29;;;;;;;43.97;25.23;;;8.30;84.10;;;;;;4904948;28;91991;-71
2021/01/23 08:10:12;;;;;;;41.77;25.60;;;8.30;84.00;;;;;;4905432;28;92869;-71
2021/01/23 08:12:40;;;;;;;45.67;28.20;;;8.20;83.90;;;;;;4885114;28;96484;-71
2021/01/23 08:15:09;;;;;;;66.47;37.30;;;8.10;84.60;;;;;;4885113;28;91990;-71
2021/01/23 08:17:38;;;;;;;68.63;42.70;;;8.20;84.60;;;;;;4869596;28;91381;-71
2021/01/23 08:20:13;;;;;;;45.47;27.17;;;8.20;84.70;;;;;;4884843;28;93307;-71
2021/01/23 08:22:57;;;;;;;46.43;25.93;;;8.10;84.20;;;;;;4884953;28;96244;-71
2021/01/23 08:25:28;;;;;;;48.73;29.70;;;8.00;84.90;;;;;;4883555;28;93311;-71
2021/01/23 08:27:55;;;;;;;55.03;33.97;;;8.00;84.80;;;;;;4902011;28;92053;-71
2021/01/23 08:30:23;;;;;;;41.67;24.73;;;8.00;85.30;;;;;;4883960;28;93331;-71
2021/01/23 08:32:51;;;;;;;74.67;38.50;;;8.00;85.10;;;;;;4901963;28;93191;-71
2021/01/23 08:35:17;;;;;;;62.80;36.10;;;8.10;85.00;;;;;;4901441;28;92087;-71
2021/01/23 08:37:45;;;;;;;50.33;31.67;;;8.00;84.80;;;;;;4868992;28;92114;-71
2021/01/23 08:40:11;;;;;;;62.23;36.80;;;8.10;84.90;;;;;;4867407;28;95936;-71
2021/01/23 08:42:37;;;;;;;57.63;34.97;;;8.10;84.70;;;;;;4885086;28;93215;-71
2021/01/23 08:45:05;;;;;;;45.70;27.63;;;8.10;85.00;;;;;;4884731;28;92431;-71
2021/01/23 08:47:31;;;;;;;49.88;28.17;;;8.00;85.30;;;;;;4901215;28;92240;-71
2021/01/23 08:49:56;;;;;;;48.07;30.23;;;8.20;85.40;;;;;;4883847;28;97559;-71
2021/01/23 08:52:22;;;;;;;47.50;28.47;;;8.10;85.50;;;;;;4883819;28;93314;-71
2021/01/23 08:54:48;;;;;;;51.67;28.57;;;8.10;85.90;;;;;;4884467;28;92098;-71
2021/01/23 08:57:14;;;;;;;44.17;27.47;;;8.10;86.00;;;;;;4868099;28;92143;-71
2021/01/23 08:59:40;;;;;;;48.13;26.37;;;8.10;85.90;;;;;;4868212;28;94952;-71
2021/01/23 09:02:06;;;;;;;42.40;25.67;;;8.20;85.90;;;;;;4884216;28;95798;-71
2021/01/23 09:04:32;;;;;;;41.50;24.88;;;8.30;85.70;;;;;;4867951;28;92168;-71
2021/01/23 09:06:58;;;;;;;41.10;24.07;;;8.30;85.70;;;;;;4902096;28;91481;-71
2021/01/23 09:09:24;;;;;;;41.17;23.83;;;8.40;85.70;;;;;;4900659;28;93163;-71
2021/01/23 09:11:50;;;;;;;62.73;31.87;;;8.40;85.90;;;;;;4884325;28;92954;-71
2021/01/23 09:14:17;;;;;;;54.23;28.20;;;8.40;85.70;;;;;;4900663;28;92864;-71
2021/01/23 09:16:42;;;;;;;38.47;22.67;;;8.50;85.70;;;;;;4884623;28;92130;-71
2021/01/23 09:19:08;;;;;;;48.25;25.83;;;8.50;85.50;;;;;;4884077;28;92656;-71
2021/01/23 09:21:34;;;;;;;51.33;25.73;;;8.60;85.50;;;;;;4900598;28;93193;-71
2021/01/23 09:24:00;;;;;;;83.03;35.53;;;8.70;85.20;;;;;;4883981;28;92090;-71
2021/01/23 09:26:26;;;;;;;78.47;37.20;;;8.80;84.80;;;;;;4883737;28;92210;-71
2021/01/23 09:28:52;;;;;;;56.85;28.48;;;8.70;84.80;;;;;;4867842;28;96247;-71
2021/01/23 09:31:18;;;;;;;47.47;27.00;;;8.80;85.30;;;;;;4900166;28;92419;-71
2021/01/23 09:33:44;;;;;;;50.53;26.87;;;8.80;85.40;;;;;;4868289;28;92114;-71
2021/01/23 09:36:10;;;;;;;61.03;28.60;;;8.90;85.40;;;;;;4884362;28;92158;-71
2021/01/23 09:38:36;;;;;;;56.37;27.40;;;8.90;85.40;;;;;;4900042;28;94275;-71
2021/01/23 09:41:01;;;;;;;56.17;28.67;;;9.00;85.40;;;;;;4901090;28;93619;-71
2021/01/23 09:43:27;;;;;;;40.05;20.10;;;9.10;85.30;;;;;;4883457;28;92419;-71
2021/01/23 09:45:53;;;;;;;46.10;21.33;;;9.20;85.30;;;;;;4883943;28;92498;-71
2021/01/23 09:48:21;;;;;;;53.50;22.95;;;9.30;85.10;;;;;;4900075;28;92794;-71
2021/01/23 09:50:47;;;;;;;37.42;18.20;;;9.40;84.80;;;;;;4867740;28;96391;-71
2021/01/23 09:53:13;;;;;;;65.15;28.00;;;9.50;84.40;;;;;;4883656;28;92105;-71
2021/01/23 09:55:40;;;;;;;65.70;28.55;;;9.60;84.20;;;;;;4883601;28;91433;-71
2021/01/23 09:58:06;;;;;;;44.38;18.65;;;9.70;83.90;;;;;;4883594;28;93244;-71
2021/01/23 10:00:32;;;;;;;38.08;18.58;;;9.70;83.70;;;;;;4899678;28;94853;-71
2021/01/23 10:02:59;;;;;;;43.55;21.52;;;9.70;84.00;;;;;;4883276;28;92870;-71
2021/01/23 10:05:26;;;;;;;33.53;16.55;;;9.70;84.00;;;;;;4882710;28;92203;-71
2021/01/23 10:07:51;;;;;;;33.80;17.85;;;9.70;83.80;;;;;;4883029;28;95969;-71
2021/01/23 10:10:17;;;;;;;26.83;15.40;;;9.90;83.30;;;;;;4899513;28;92508;-71
2021/01/23 10:12:43;;;;;;;31.95;17.20;;;9.90;82.80;;;;;;4867545;28;92319;-71
2021/01/23 10:15:09;;;;;;;30.38;14.48;;;10.10;82.20;;;;;;4900513;28;92253;-71
2021/01/23 10:17:35;;;;;;;23.58;13.38;;;10.20;81.50;;;;;;4899652;28;93342;-71
2021/01/23 10:20:01;;;;;;;30.70;14.10;;;10.30;80.90;;;;;;4899901;28;92455;-71
2021/01/23 10:22:27;;;;;;;22.55;11.02;;;10.40;80.60;;;;;;4899986;28;91949;-71
2021/01/23 10:24:53;;;;;;;16.02;8.45;;;10.50;80.10;;;;;;4867395;28;92492;-71
2021/01/23 10:27:19;;;;;;;14.60;7.85;;;10.50;80.00;;;;;;4882495;28;94270;-71
2021/01/23 10:29:45;;;;;;;13.77;7.47;;;10.50;79.70;;;;;;4883443;28;96762;-72
2021/01/23 10:32:11;;;;;;;13.63;7.65;;;10.60;79.50;;;;;;4884636;28;92474;-71
2021/01/23 10:34:37;;;;;;;11.70;7.05;;;10.70;79.20;;;;;;4882342;28;92483;-71
2021/01/23 10:37:02;;;;;;;12.65;6.53;;;10.70;79.30;;;;;;4883387;28;96302;-71
2021/01/23 10:39:28;;;;;;;13.88;6.60;;;10.70;79.20;;;;;;4882596;28;94487;-71
2021/01/23 10:41:54;;;;;;;8.13;4.78;;;10.70;78.80;;;;;;4883773;28;92672;-71
2021/01/23 10:44:21;;;;;;;9.80;5.03;;;10.70;78.60;;;;;;4900639;28;91414;-71
2021/01/23 10:46:47;;;;;;;11.48;6.07;;;10.70;78.30;;;;;;4883108;28;97014;-71
2021/01/23 10:49:13;;;;;;;9.82;6.07;;;10.70;78.20;;;;;;4900695;28;93341;-71
2021/01/23 10:51:38;;;;;;;11.00;6.18;;;10.70;78.10;;;;;;4899891;28;92951;-71
2021/01/23 10:54:05;;;;;;;11.52;6.55;;;10.80;78.30;;;;;;4883421;28;92083;-71
2021/01/23 10:56:32;;;;;;;9.32;5.63;;;10.90;78.10;;;;;;4866672;28;96559;-71
2021/01/23 10:59:01;;;;;;;13.20;6.32;;;10.90;78.10;;;;;;4883451;28;92764;-71
2021/01/23 11:01:30;;;;;;;12.55;5.50;;;10.90;78.30;;;;;;4900019;28;92288;-71
2021/01/23 11:03:57;;;;;;;9.70;5.03;;;10.90;78.10;;;;;;4867467;28;92439;-71
2021/01/23 11:06:23;;;;;;;10.05;5.88;;;10.80;78.30;;;;;;4882623;28;92725;-71
2021/01/23 11:08:50;;;;;;;8.73;4.20;;;10.80;78.00;;;;;;4900767;28;92919;-71
2021/01/23 11:11:16;;;;;;;7.72;4.35;;;10.90;78.10;;;;;;4882832;28;92387;-71
2021/01/23 11:13:42;;;;;;;9.75;4.22;;;10.80;78.50;;;;;;4866760;28;92907;-71
2021/01/23 11:16:08;;;;;;;10.43;5.53;;;10.80;78.50;;;;;;4882519;28;96842;-71
2021/01/23 11:18:35;;;;;;;10.95;7.15;;;10.80;78.30;;;;;;4865880;28;96666;-71
2021/01/23 11:21:01;;;;;;;12.50;6.78;;;10.90;77.70;;;;;;4867401;28;92081;-71
2021/01/23 11:23:27;;;;;;;12.93;7.03;;;10.90;77.50;;;;;;4882433;28;92093;-71
2021/01/23 11:25:53;;;;;;;8.80;4.95;;;10.90;77.30;;;;;;4900189;28;92784;-71
2021/01/23 11:28:19;;;;;;;10.82;5.60;;;10.90;76.80;;;;;;4882539;28;92571;-71
2021/01/23 11:30:45;;;;;;;7.47;5.40;;;10.90;76.10;;;;;;4900107;28;91913;-71
2021/01/23 11:33:11;;;;;;;8.55;5.65;;;10.90;76.00;;;;;;4883439;28;91390;-71
2021/01/23 11:35:36;;;;;;;9.93;4.68;;;10.90;75.90;;;;;;4899282;28;93179;-71
2021/01/23 11:38:02;;;;;;;12.43;5.35;;;11.00;74.50;;;;;;4900168;28;92914;-71
2021/01/23 11:40:29;;;;;;;11.57;5.40;;;11.00;73.40;;;;;;4899266;28;92782;-71
2021/01/23 11:42:55;;;;;;;9.05;5.32;;;11.00;72.90;;;;;;4900375;28;92218;-71
2021/01/23 11:45:21;;;;;;;12.48;5.03;;;11.10;72.70;;;;;;4882561;28;93274;-71
2021/01/23 11:47:48;;;;;;;10.98;5.45;;;11.20;71.50;;;;;;4885463;28;96527;-71
2021/01/23 11:50:14;;;;;;;13.10;7.88;;;11.30;70.30;;;;;;4886313;28;91904;-71
2021/01/23 11:52:40;;;;;;;10.70;6.43;;;11.40;67.20;;;;;;4885457;28;92294;-71
2021/01/23 11:55:06;;;;;;;15.30;8.63;;;11.40;66.20;;;;;;4886061;28;92739;-71
2021/01/23 11:57:34;;;;;;;17.67;9.68;;;11.40;65.50;;;;;;4902732;28;92278;-71
2021/01/23 12:00:00;;;;;;;19.92;9.65;;;11.30;64.40;;;;;;4885529;28;92007;-71
2021/01/23 12:02:25;;;;;;;17.10;10.63;;;11.40;64.60;;;;;;4902635;28;92390;-71
2021/01/23 12:04:51;;;;;;;12.65;8.35;;;11.40;64.80;;;;;;4884454;28;97792;-71
2021/01/23 12:07:19;;;;;;;9.93;7.85;;;11.40;63.90;;;;;;4902829;28;93813;-71
2021/01/23 12:09:45;;;;;;;13.45;8.68;;;11.50;64.00;;;;;;4869279;28;92089;-71
2021/01/23 12:12:11;;;;;;;14.18;8.45;;;11.50;63.50;;;;;;4903258;28;92049;-71
2021/01/23 12:14:38;;;;;;;14.75;8.52;;;11.50;63.20;;;;;;4884725;28;95478;-71
2021/01/23 12:17:04;;;;;;;14.57;8.43;;;11.40;63.10;;;;;;4902706;28;92597;-72
2021/01/23 12:19:29;;;;;;;11.48;8.02;;;11.40;62.80;;;;;;4884886;28;92056;-71
2021/01/23 12:21:56;;;;;;;11.35;7.85;;;11.30;62.80;;;;;;4903400;28;91375;-71
2021/01/23 12:24:22;;;;;;;12.27;8.25;;;11.20;63.00;;;;;;4885632;28;92971;-71
2021/01/23 12:26:48;;;;;;;10.93;7.70;;;11.00;63.70;;;;;;4884536;28;96228;-71
2021/01/23 12:29:14;;;;;;;12.57;7.95;;;10.90;64.00;;;;;;4902682;28;92871;-71
2021/01/23 12:31:40;;;;;;;12.93;7.97;;;10.80;64.00;;;;;;4901894;28;92042;-71
2021/01/23 12:34:06;;;;;;;11.18;7.85;;;10.60;64.50;;;;;;4902576;28;92900;-71
2021/01/23 12:36:32;;;;;;;12.52;6.97;;;10.60;64.10;;;;;;4884732;28;92388;-71
2021/01/23 12:38:58;;;;;;;11.13;7.07;;;10.60;63.40;;;;;;4886008;28;92287;-71
2021/01/23 12:41:24;;;;;;;10.20;6.25;;;10.50;63.50;;;;;;4885478;28;92102;-71
2021/01/23 12:43:50;;;;;;;9.55;6.57;;;10.30;64.10;;;;;;4884228;28;96546;-71